sensor_id;sensor_type;location;lat;lon;timestamp;pressure;altitude;pressure_sealevel;temperature;humidity
69223;BME280;56514;51.816;-0.026;2023-04-24T00:00:27;99928.88;;;10.91;65.23
69223;BME280;56514;51.816;-0.026;2023-04-24T00:03:36;99935.22;;;10.88;64.77
69223;BME280;56514;51.816;-0.026;2023-04-24T00:06:42;99942.22;;;10.78;64.55
69223;BME280;56514;51.816;-0.026;2023-04-24T00:09:47;99948.13;;;10.71;64.21
69223;BME280;56514;51.816;-0.026;2023-04-24T00:12:56;99954.03;;;10.41;64.96
69223;BME280;56514;51.816;-0.026;2023-04-24T00:16:06;99955.97;;;10.28;65.45
69223;BME280;56514;51.816;-0.026;2023-04-24T00:19:15;99953.09;;;10.20;65.44
69223;BME280;56514;51.816;-0.026;2023-04-24T00:22:26;99961.00;;;10.09;65.96
69223;BME280;56514;51.816;-0.026;2023-04-24T00:25:35;99959.91;;;10.00;66.43
69223;BME280;56514;51.816;-0.026;2023-04-24T00:28:44;99966.25;;;9.98;66.52
69223;BME280;56514;51.816;-0.026;2023-04-24T00:31:53;99970.28;;;9.91;66.87
69223;BME280;56514;51.816;-0.026;2023-04-24T00:34:39;99970.41;;;9.89;66.73
69223;BME280;56514;51.816;-0.026;2023-04-24T00:37:23;99963.00;;;9.83;66.69
69223;BME280;56514;51.816;-0.026;2023-04-24T00:40:08;99961.19;;;9.84;67.27
69223;BME280;56514;51.816;-0.026;2023-04-24T00:42:54;99967.41;;;9.83;67.06
69223;BME280;56514;51.816;-0.026;2023-04-24T00:45:38;99968.97;;;9.74;67.65
69223;BME280;56514;51.816;-0.026;2023-04-24T00:48:24;99969.94;;;9.73;67.35
69223;BME280;56514;51.816;-0.026;2023-04-24T00:51:10;99976.00;;;9.74;67.23
69223;BME280;56514;51.816;-0.026;2023-04-24T00:53:55;99987.28;;;9.76;67.70
69223;BME280;56514;51.816;-0.026;2023-04-24T00:56:41;99991.81;;;9.74;67.86
69223;BME280;56514;51.816;-0.026;2023-04-24T00:59:27;99995.75;;;9.68;67.88
69223;BME280;56514;51.816;-0.026;2023-04-24T01:02:11;99992.03;;;9.71;67.50
69223;BME280;56514;51.816;-0.026;2023-04-24T01:04:57;99996.50;;;9.70;68.04
69223;BME280;56514;51.816;-0.026;2023-04-24T01:07:44;100002.59;;;9.71;67.96
69223;BME280;56514;51.816;-0.026;2023-04-24T01:10:33;100002.22;;;9.75;68.28
69223;BME280;56514;51.816;-0.026;2023-04-24T01:13:20;99998.19;;;9.82;68.22
69223;BME280;56514;51.816;-0.026;2023-04-24T01:16:05;100008.88;;;9.92;67.64
69223;BME280;56514;51.816;-0.026;2023-04-24T01:18:50;100005.78;;;9.98;67.89
69223;BME280;56514;51.816;-0.026;2023-04-24T01:21:36;100007.81;;;10.05;67.54
69223;BME280;56514;51.816;-0.026;2023-04-24T01:24:22;100010.94;;;10.10;67.37
69223;BME280;56514;51.816;-0.026;2023-04-24T01:27:08;100013.00;;;10.18;67.22
69223;BME280;56514;51.816;-0.026;2023-04-24T01:29:54;100006.78;;;10.19;67.58
69223;BME280;56514;51.816;-0.026;2023-04-24T01:32:40;100019.72;;;10.22;67.76
69223;BME280;56514;51.816;-0.026;2023-04-24T01:35:25;100024.41;;;10.29;68.56
69223;BME280;56514;51.816;-0.026;2023-04-24T01:38:35;100019.25;;;10.28;68.67
69223;BME280;56514;51.816;-0.026;2023-04-24T01:41:45;100038.19;;;10.33;68.57
69223;BME280;56514;51.816;-0.026;2023-04-24T01:44:50;100031.34;;;10.30;68.91
69223;BME280;56514;51.816;-0.026;2023-04-24T01:48:00;100029.19;;;10.35;68.61
69223;BME280;56514;51.816;-0.026;2023-04-24T01:51:09;100034.47;;;10.35;68.59
69223;BME280;56514;51.816;-0.026;2023-04-24T01:54:18;100027.41;;;10.36;68.44
69223;BME280;56514;51.816;-0.026;2023-04-24T01:57:28;100026.91;;;10.42;68.24
69223;BME280;56514;51.816;-0.026;2023-04-24T02:00:38;100018.78;;;10.45;68.78
69223;BME280;56514;51.816;-0.026;2023-04-24T02:03:48;100030.13;;;10.45;68.57
69223;BME280;56514;51.816;-0.026;2023-04-24T02:06:58;100027.84;;;10.41;69.22
69223;BME280;56514;51.816;-0.026;2023-04-24T02:10:08;100029.06;;;10.48;69.06
69223;BME280;56514;51.816;-0.026;2023-04-24T02:13:17;100026.56;;;10.35;69.16
69223;BME280;56514;51.816;-0.026;2023-04-24T02:16:02;100025.81;;;10.33;69.10
69223;BME280;56514;51.816;-0.026;2023-04-24T02:18:47;100030.50;;;10.30;68.83
69223;BME280;56514;51.816;-0.026;2023-04-24T02:21:33;100029.66;;;10.29;68.86
69223;BME280;56514;51.816;-0.026;2023-04-24T02:24:18;100041.63;;;10.33;68.44
69223;BME280;56514;51.816;-0.026;2023-04-24T02:27:03;100038.06;;;10.34;68.15
69223;BME280;56514;51.816;-0.026;2023-04-24T02:29:48;100032.78;;;10.34;67.66
69223;BME280;56514;51.816;-0.026;2023-04-24T02:32:33;100041.63;;;10.33;67.47
69223;BME280;56514;51.816;-0.026;2023-04-24T02:35:18;100035.56;;;10.33;67.33
69223;BME280;56514;51.816;-0.026;2023-04-24T02:38:04;100042.13;;;10.38;66.74
69223;BME280;56514;51.816;-0.026;2023-04-24T02:40:49;100045.63;;;10.39;66.85
69223;BME280;56514;51.816;-0.026;2023-04-24T02:43:34;100050.88;;;10.39;66.45
69223;BME280;56514;51.816;-0.026;2023-04-24T02:46:19;100050.16;;;10.37;66.19
69223;BME280;56514;51.816;-0.026;2023-04-24T02:49:04;100063.47;;;10.35;65.89
69223;BME280;56514;51.816;-0.026;2023-04-24T02:51:50;100058.31;;;10.34;66.04
69223;BME280;56514;51.816;-0.026;2023-04-24T02:54:35;100054.69;;;10.35;65.83
69223;BME280;56514;51.816;-0.026;2023-04-24T02:57:19;100056.41;;;10.36;65.17
69223;BME280;56514;51.816;-0.026;2023-04-24T03:00:05;100058.53;;;10.31;65.34
69223;BME280;56514;51.816;-0.026;2023-04-24T03:02:51;100060.44;;;10.29;65.55
69223;BME280;56514;51.816;-0.026;2023-04-24T03:05:36;100068.47;;;10.27;65.69
69223;BME280;56514;51.816;-0.026;2023-04-24T03:08:21;100066.34;;;10.32;65.16
69223;BME280;56514;51.816;-0.026;2023-04-24T03:11:06;100077.00;;;10.31;65.31
69223;BME280;56514;51.816;-0.026;2023-04-24T03:13:51;100082.00;;;10.23;65.12
69223;BME280;56514;51.816;-0.026;2023-04-24T03:16:38;100083.44;;;10.16;64.48
69223;BME280;56514;51.816;-0.026;2023-04-24T03:19:47;100086.13;;;10.03;65.00
69223;BME280;56514;51.816;-0.026;2023-04-24T03:22:56;100086.25;;;10.02;64.48
69223;BME280;56514;51.816;-0.026;2023-04-24T03:26:05;100091.97;;;9.96;64.81
69223;BME280;56514;51.816;-0.026;2023-04-24T03:29:14;100100.34;;;9.90;64.98
69223;BME280;56514;51.816;-0.026;2023-04-24T03:32:24;100105.16;;;9.96;64.34
69223;BME280;56514;51.816;-0.026;2023-04-24T03:35:33;100113.00;;;9.85;65.34
69223;BME280;56514;51.816;-0.026;2023-04-24T03:38:43;100110.41;;;9.96;64.64
69223;BME280;56514;51.816;-0.026;2023-04-24T03:41:52;100127.53;;;9.90;64.93
69223;BME280;56514;51.816;-0.026;2023-04-24T03:45:01;100124.16;;;9.88;64.95
69223;BME280;56514;51.816;-0.026;2023-04-24T03:48:10;100121.16;;;9.82;64.71
69223;BME280;56514;51.816;-0.026;2023-04-24T03:51:19;100133.47;;;9.81;64.87
69223;BME280;56514;51.816;-0.026;2023-04-24T03:54:28;100136.94;;;9.82;64.63
69223;BME280;56514;51.816;-0.026;2023-04-24T03:57:37;100135.84;;;9.73;65.00
69223;BME280;56514;51.816;-0.026;2023-04-24T04:00:46;100145.41;;;9.74;65.16
69223;BME280;56514;51.816;-0.026;2023-04-24T04:03:33;100148.91;;;9.75;65.34
69223;BME280;56514;51.816;-0.026;2023-04-24T04:06:18;100147.81;;;9.77;64.84
69223;BME280;56514;51.816;-0.026;2023-04-24T04:09:04;100150.47;;;9.77;64.87
69223;BME280;56514;51.816;-0.026;2023-04-24T04:11:49;100159.03;;;9.68;63.91
69223;BME280;56514;51.816;-0.026;2023-04-24T04:14:34;100167.59;;;9.59;63.82
69223;BME280;56514;51.816;-0.026;2023-04-24T04:17:19;100162.00;;;9.64;63.74
69223;BME280;56514;51.816;-0.026;2023-04-24T04:20:04;100172.88;;;9.59;63.88
69223;BME280;56514;51.816;-0.026;2023-04-24T04:22:54;100179.16;;;9.69;63.47
69223;BME280;56514;51.816;-0.026;2023-04-24T04:25:42;100180.56;;;9.62;63.79
69223;BME280;56514;51.816;-0.026;2023-04-24T04:28:28;100183.06;;;9.64;63.74
69223;BME280;56514;51.816;-0.026;2023-04-24T04:31:12;100181.00;;;9.56;63.74
69223;BME280;56514;51.816;-0.026;2023-04-24T04:33:59;100187.75;;;9.48;63.35
69223;BME280;56514;51.816;-0.026;2023-04-24T04:36:45;100195.59;;;9.37;63.73
69223;BME280;56514;51.816;-0.026;2023-04-24T04:39:30;100203.41;;;9.26;63.68
69223;BME280;56514;51.816;-0.026;2023-04-24T04:42:15;100212.06;;;9.15;63.74
69223;BME280;56514;51.816;-0.026;2023-04-24T04:45:00;100212.91;;;9.16;63.46
69223;BME280;56514;51.816;-0.026;2023-04-24T04:47:46;100224.34;;;9.15;63.50
69223;BME280;56514;51.816;-0.026;2023-04-24T04:50:31;100221.22;;;9.10;63.28
69223;BME280;56514;51.816;-0.026;2023-04-24T04:53:17;100229.94;;;9.10;63.35
69223;BME280;56514;51.816;-0.026;2023-04-24T04:56:03;100226.50;;;9.10;63.63
69223;BME280;56514;51.816;-0.026;2023-04-24T04:58:47;100226.28;;;9.00;63.39
69223;BME280;56514;51.816;-0.026;2023-04-24T05:01:33;100228.16;;;8.98;63.88
69223;BME280;56514;51.816;-0.026;2023-04-24T05:04:18;100235.94;;;9.00;63.54
69223;BME280;56514;51.816;-0.026;2023-04-24T05:07:22;100239.22;;;8.90;63.68
69223;BME280;56514;51.816;-0.026;2023-04-24T05:10:27;100249.75;;;8.90;63.73
69223;BME280;56514;51.816;-0.026;2023-04-24T05:13:37;100246.91;;;8.93;63.75
69223;BME280;56514;51.816;-0.026;2023-04-24T05:16:46;100248.06;;;8.89;63.69
69223;BME280;56514;51.816;-0.026;2023-04-24T05:19:55;100254.78;;;8.93;63.66
69223;BME280;56514;51.816;-0.026;2023-04-24T05:23:04;100252.28;;;9.05;63.10
69223;BME280;56514;51.816;-0.026;2023-04-24T05:26:13;100260.69;;;9.10;62.70
69223;BME280;56514;51.816;-0.026;2023-04-24T05:29:23;100263.41;;;9.08;63.07
69223;BME280;56514;51.816;-0.026;2023-04-24T05:32:33;100273.31;;;9.05;63.18
69223;BME280;56514;51.816;-0.026;2023-04-24T05:35:18;100280.91;;;9.22;62.82
69223;BME280;56514;51.816;-0.026;2023-04-24T05:38:03;100285.53;;;9.31;61.98
69223;BME280;56514;51.816;-0.026;2023-04-24T05:40:49;100287.19;;;9.32;62.01
69223;BME280;56514;51.816;-0.026;2023-04-24T05:43:37;100285.38;;;9.45;61.82
69223;BME280;56514;51.816;-0.026;2023-04-24T05:46:25;100284.00;;;9.52;60.72
69223;BME280;56514;51.816;-0.026;2023-04-24T05:49:10;100288.41;;;9.51;61.22
69223;BME280;56514;51.816;-0.026;2023-04-24T05:51:56;100284.75;;;9.54;60.92
69223;BME280;56514;51.816;-0.026;2023-04-24T05:54:42;100294.00;;;9.59;60.95
69223;BME280;56514;51.816;-0.026;2023-04-24T05:57:27;100300.63;;;9.65;60.22
69223;BME280;56514;51.816;-0.026;2023-04-24T06:00:12;100300.41;;;9.68;60.26
69223;BME280;56514;51.816;-0.026;2023-04-24T06:02:57;100300.19;;;9.71;60.17
69223;BME280;56514;51.816;-0.026;2023-04-24T06:05:42;100296.03;;;9.92;59.09
69223;BME280;56514;51.816;-0.026;2023-04-24T06:08:27;100303.00;;;9.80;59.75
69223;BME280;56514;51.816;-0.026;2023-04-24T06:11:13;100300.25;;;9.82;59.96
69223;BME280;56514;51.816;-0.026;2023-04-24T06:14:01;100304.34;;;9.86;59.20
69223;BME280;56514;51.816;-0.026;2023-04-24T06:16:47;100304.56;;;9.83;59.56
69223;BME280;56514;51.816;-0.026;2023-04-24T06:19:32;100300.56;;;9.90;59.09
69223;BME280;56514;51.816;-0.026;2023-04-24T06:22:17;100304.00;;;10.03;59.93
69223;BME280;56514;51.816;-0.026;2023-04-24T06:25:03;100305.06;;;10.13;59.04
69223;BME280;56514;51.816;-0.026;2023-04-24T06:27:49;100306.38;;;10.18;58.71
69223;BME280;56514;51.816;-0.026;2023-04-24T06:30:35;100307.63;;;10.25;59.08
69223;BME280;56514;51.816;-0.026;2023-04-24T06:33:20;100309.22;;;10.28;58.49
69223;BME280;56514;51.816;-0.026;2023-04-24T06:36:25;100308.25;;;10.29;58.17
69223;BME280;56514;51.816;-0.026;2023-04-24T06:39:35;100312.25;;;10.34;58.12
69223;BME280;56514;51.816;-0.026;2023-04-24T06:42:40;100322.81;;;10.45;57.86
69223;BME280;56514;51.816;-0.026;2023-04-24T06:45:45;100319.66;;;10.64;57.84
69223;BME280;56514;51.816;-0.026;2023-04-24T06:48:52;100315.88;;;10.68;57.35
69223;BME280;56514;51.816;-0.026;2023-04-24T06:52:01;100317.59;;;10.80;56.43
69223;BME280;56514;51.816;-0.026;2023-04-24T06:55:06;100338.09;;;10.88;56.19
69223;BME280;56514;51.816;-0.026;2023-04-24T06:58:15;100330.78;;;10.91;56.00
69223;BME280;56514;51.816;-0.026;2023-04-24T07:01:24;100325.97;;;10.85;55.81
69223;BME280;56514;51.816;-0.026;2023-04-24T07:04:33;100340.41;;;11.03;56.30
69223;BME280;56514;51.816;-0.026;2023-04-24T07:07:43;100334.34;;;11.25;55.55
69223;BME280;56514;51.816;-0.026;2023-04-24T07:10:53;100333.50;;;11.35;54.80
69223;BME280;56514;51.816;-0.026;2023-04-24T07:14:02;100343.84;;;11.38;53.76
69223;BME280;56514;51.816;-0.026;2023-04-24T07:16:48;100348.16;;;11.28;54.45
69223;BME280;56514;51.816;-0.026;2023-04-24T07:19:34;100337.47;;;11.30;54.23
69223;BME280;56514;51.816;-0.026;2023-04-24T07:22:20;100345.44;;;11.41;54.39
69223;BME280;56514;51.816;-0.026;2023-04-24T07:25:05;100340.03;;;11.42;53.81
69223;BME280;56514;51.816;-0.026;2023-04-24T07:27:50;100334.47;;;11.34;54.18
69223;BME280;56514;51.816;-0.026;2023-04-24T07:30:35;100345.19;;;11.44;53.39
69223;BME280;56514;51.816;-0.026;2023-04-24T07:33:21;100340.66;;;11.68;53.56
69223;BME280;56514;51.816;-0.026;2023-04-24T07:36:05;100344.25;;;11.89;53.00
69223;BME280;56514;51.816;-0.026;2023-04-24T07:38:51;100336.91;;;12.03;52.13
69223;BME280;56514;51.816;-0.026;2023-04-24T07:41:36;100336.06;;;12.14;51.42
69223;BME280;56514;51.816;-0.026;2023-04-24T07:44:21;100334.84;;;12.07;51.15
69223;BME280;56514;51.816;-0.026;2023-04-24T07:47:06;100340.63;;;12.01;51.71
69223;BME280;56514;51.816;-0.026;2023-04-24T07:49:51;100347.44;;;12.25;51.01
69223;BME280;56514;51.816;-0.026;2023-04-24T07:52:36;100343.84;;;12.26;50.67
69223;BME280;56514;51.816;-0.026;2023-04-24T07:55:21;100343.84;;;12.26;49.99
69223;BME280;56514;51.816;-0.026;2023-04-24T07:58:06;100349.56;;;12.43;50.20
69223;BME280;56514;51.816;-0.026;2023-04-24T08:00:53;100351.41;;;12.63;50.44
69223;BME280;56514;51.816;-0.026;2023-04-24T08:03:38;100358.38;;;12.64;48.55
69223;BME280;56514;51.816;-0.026;2023-04-24T08:06:23;100358.50;;;12.62;48.90
69223;BME280;56514;51.816;-0.026;2023-04-24T08:09:09;100354.81;;;12.54;48.48
69223;BME280;56514;51.816;-0.026;2023-04-24T08:11:54;100365.06;;;12.47;49.17
69223;BME280;56514;51.816;-0.026;2023-04-24T08:14:39;100365.41;;;12.54;47.74
69223;BME280;56514;51.816;-0.026;2023-04-24T08:17:44;100357.97;;;12.48;48.31
69223;BME280;56514;51.816;-0.026;2023-04-24T08:20:49;100357.03;;;12.37;48.26
69223;BME280;56514;51.816;-0.026;2023-04-24T08:23:39;100363.84;;;12.51;48.45
69223;BME280;56514;51.816;-0.026;2023-04-24T08:26:25;100354.72;;;12.76;48.39
69223;BME280;56514;51.816;-0.026;2023-04-24T08:29:10;100354.41;;;13.01;47.81
69223;BME280;56514;51.816;-0.026;2023-04-24T08:31:55;100357.28;;;13.09;47.40
69223;BME280;56514;51.816;-0.026;2023-04-24T08:34:40;100360.59;;;13.11;46.51
69223;BME280;56514;51.816;-0.026;2023-04-24T08:37:26;100353.03;;;13.06;46.23
69223;BME280;56514;51.816;-0.026;2023-04-24T08:40:13;100355.75;;;13.36;46.85
69223;BME280;56514;51.816;-0.026;2023-04-24T08:42:59;100362.94;;;13.45;44.64
69223;BME280;56514;51.816;-0.026;2023-04-24T08:45:44;100362.56;;;13.59;45.03
69223;BME280;56514;51.816;-0.026;2023-04-24T08:48:30;100360.63;;;13.61;43.98
69223;BME280;56514;51.816;-0.026;2023-04-24T08:51:16;100363.75;;;13.76;44.18
69223;BME280;56514;51.816;-0.026;2023-04-24T08:54:01;100371.31;;;14.20;43.36
69223;BME280;56514;51.816;-0.026;2023-04-24T08:56:48;100367.63;;;14.32;43.61
69223;BME280;56514;51.816;-0.026;2023-04-24T08:59:34;100371.41;;;14.39;42.04
69223;BME280;56514;51.816;-0.026;2023-04-24T09:02:21;100362.81;;;14.17;42.58
69223;BME280;56514;51.816;-0.026;2023-04-24T09:05:06;100376.63;;;14.10;42.59
69223;BME280;56514;51.816;-0.026;2023-04-24T09:07:56;100374.47;;;13.95;42.18
69223;BME280;56514;51.816;-0.026;2023-04-24T09:10:41;100373.59;;;13.85;43.12
69223;BME280;56514;51.816;-0.026;2023-04-24T09:13:27;100378.22;;;13.62;43.42
69223;BME280;56514;51.816;-0.026;2023-04-24T09:16:13;100379.78;;;13.65;44.11
69223;BME280;56514;51.816;-0.026;2023-04-24T09:18:58;100390.44;;;13.54;43.40
69223;BME280;56514;51.816;-0.026;2023-04-24T09:21:47;100394.03;;;13.43;43.98
69223;BME280;56514;51.816;-0.026;2023-04-24T09:25:06;100383.28;;;13.45;44.33
69223;BME280;56514;51.816;-0.026;2023-04-24T09:28:15;100395.34;;;13.58;44.50
69223;BME280;56514;51.816;-0.026;2023-04-24T09:31:20;100391.47;;;13.62;44.20
69223;BME280;56514;51.816;-0.026;2023-04-24T09:34:27;100392.56;;;13.60;43.36
69223;BME280;56514;51.816;-0.026;2023-04-24T09:37:38;100393.28;;;13.62;43.92
69223;BME280;56514;51.816;-0.026;2023-04-24T09:40:54;100407.09;;;13.86;43.92
69223;BME280;56514;51.816;-0.026;2023-04-24T09:44:18;100409.34;;;13.90;43.55
69223;BME280;56514;51.816;-0.026;2023-04-24T09:47:25;100420.13;;;13.98;43.59
69223;BME280;56514;51.816;-0.026;2023-04-24T09:50:34;100418.44;;;13.97;43.03
69223;BME280;56514;51.816;-0.026;2023-04-24T09:53:47;100422.34;;;13.73;42.99
69223;BME280;56514;51.816;-0.026;2023-04-24T09:56:57;100426.63;;;13.64;43.87
69223;BME280;56514;51.816;-0.026;2023-04-24T10:00:10;100430.88;;;13.76;44.16
69223;BME280;56514;51.816;-0.026;2023-04-24T10:03:19;100429.22;;;14.05;42.87
69223;BME280;56514;51.816;-0.026;2023-04-24T10:06:33;100439.88;;;14.15;42.19
69223;BME280;56514;51.816;-0.026;2023-04-24T10:09:42;100446.00;;;14.36;41.79
69223;BME280;56514;51.816;-0.026;2023-04-24T10:12:52;100445.63;;;14.50;42.17
69223;BME280;56514;51.816;-0.026;2023-04-24T10:16:03;100443.84;;;14.89;41.73
69223;BME280;56514;51.816;-0.026;2023-04-24T10:19:15;100440.66;;;15.04;40.77
69223;BME280;56514;51.816;-0.026;2023-04-24T10:22:00;100454.25;;;15.20;40.54
69223;BME280;56514;51.816;-0.026;2023-04-24T10:24:47;100456.75;;;15.12;39.90
69223;BME280;56514;51.816;-0.026;2023-04-24T10:27:34;100461.91;;;15.04;40.39
69223;BME280;56514;51.816;-0.026;2023-04-24T10:30:20;100464.00;;;14.82;40.48
69223;BME280;56514;51.816;-0.026;2023-04-24T10:33:06;100457.69;;;14.83;41.30
69223;BME280;56514;51.816;-0.026;2023-04-24T10:35:52;100456.03;;;14.91;41.07
69223;BME280;56514;51.816;-0.026;2023-04-24T10:38:39;100453.94;;;14.95;40.96
69223;BME280;56514;51.816;-0.026;2023-04-24T10:41:26;100460.97;;;15.05;40.69
69223;BME280;56514;51.816;-0.026;2023-04-24T10:44:14;100457.03;;;15.09;40.75
69223;BME280;56514;51.816;-0.026;2023-04-24T10:46:59;100451.44;;;15.22;40.94
69223;BME280;56514;51.816;-0.026;2023-04-24T10:49:45;100461.28;;;15.40;39.88
69223;BME280;56514;51.816;-0.026;2023-04-24T10:52:47;100470.34;;;15.47;40.08
69223;BME280;56514;51.816;-0.026;2023-04-24T10:55:52;100457.00;;;15.66;39.54
69223;BME280;56514;51.816;-0.026;2023-04-24T10:58:59;100464.91;;;16.05;39.12
69223;BME280;56514;51.816;-0.026;2023-04-24T11:01:53;100464.59;;;16.17;38.18
69223;BME280;56514;51.816;-0.026;2023-04-24T11:04:39;100469.41;;;16.04;38.41
69223;BME280;56514;51.816;-0.026;2023-04-24T11:07:25;100465.88;;;16.13;39.07
69223;BME280;56514;51.816;-0.026;2023-04-24T11:10:28;100465.09;;;16.67;38.89
69223;BME280;56514;51.816;-0.026;2023-04-24T11:13:16;100463.91;;;17.31;38.53
69223;BME280;56514;51.816;-0.026;2023-04-24T11:19:29;100458.72;;;17.91;36.32
69223;BME280;56514;51.816;-0.026;2023-04-24T11:22:16;100462.63;;;17.53;36.66
69223;BME280;56514;51.816;-0.026;2023-04-24T11:25:22;100475.13;;;17.35;37.74
69223;BME280;56514;51.816;-0.026;2023-04-24T11:28:31;100468.78;;;17.36;37.56
69223;BME280;56514;51.816;-0.026;2023-04-24T11:31:39;100473.56;;;17.32;37.86
69223;BME280;56514;51.816;-0.026;2023-04-24T11:34:49;100470.25;;;17.30;37.64
69223;BME280;56514;51.816;-0.026;2023-04-24T11:37:56;100471.19;;;18.08;37.50
69223;BME280;56514;51.816;-0.026;2023-04-24T11:41:06;100471.69;;;18.70;33.96
69223;BME280;56514;51.816;-0.026;2023-04-24T11:44:20;100479.72;;;18.86;33.43
69223;BME280;56514;51.816;-0.026;2023-04-24T11:47:30;100480.06;;;18.83;32.30
69223;BME280;56514;51.816;-0.026;2023-04-24T11:50:49;100485.09;;;18.86;33.20
69223;BME280;56514;51.816;-0.026;2023-04-24T11:54:01;100480.78;;;18.52;33.44
69223;BME280;56514;51.816;-0.026;2023-04-24T11:57:10;100483.03;;;18.64;34.56
69223;BME280;56514;51.816;-0.026;2023-04-24T12:00:31;100484.81;;;19.21;33.61
69223;BME280;56514;51.816;-0.026;2023-04-24T12:03:18;100479.31;;;19.15;32.26
69223;BME280;56514;51.816;-0.026;2023-04-24T12:06:07;100491.72;;;18.74;32.60
69223;BME280;56514;51.816;-0.026;2023-04-24T12:09:03;100481.75;;;18.43;33.45
69223;BME280;56514;51.816;-0.026;2023-04-24T12:11:55;100487.91;;;18.77;33.48
69223;BME280;56514;51.816;-0.026;2023-04-24T12:14:52;100493.09;;;19.68;33.19
69223;BME280;56514;51.816;-0.026;2023-04-24T12:17:41;100485.44;;;20.52;32.42
69223;BME280;56514;51.816;-0.026;2023-04-24T12:20:31;100486.59;;;20.96;30.41
69223;BME280;56514;51.816;-0.026;2023-04-24T12:23:35;100490.03;;;20.27;30.34
69223;BME280;56514;51.816;-0.026;2023-04-24T12:26:20;100491.75;;;19.64;31.85
69223;BME280;56514;51.816;-0.026;2023-04-24T12:29:07;100483.84;;;19.95;32.30
69223;BME280;56514;51.816;-0.026;2023-04-24T12:31:52;100474.56;;;20.37;31.06
69223;BME280;56514;51.816;-0.026;2023-04-24T12:34:37;100478.41;;;20.81;31.79
69223;BME280;56514;51.816;-0.026;2023-04-24T12:37:26;100476.41;;;21.59;31.30
69223;BME280;56514;51.816;-0.026;2023-04-24T12:40:17;100483.78;;;22.17;31.17
69223;BME280;56514;51.816;-0.026;2023-04-24T12:43:16;100480.38;;;22.67;28.79
69223;BME280;56514;51.816;-0.026;2023-04-24T12:46:04;100470.97;;;22.77;28.37
69223;BME280;56514;51.816;-0.026;2023-04-24T12:48:50;100470.53;;;22.74;28.60
69223;BME280;56514;51.816;-0.026;2023-04-24T12:51:35;100465.75;;;22.90;28.55
69223;BME280;56514;51.816;-0.026;2023-04-24T12:54:20;100459.69;;;23.03;27.60
69223;BME280;56514;51.816;-0.026;2023-04-24T12:57:05;100458.81;;;23.31;27.90
69223;BME280;56514;51.816;-0.026;2023-04-24T12:59:49;100461.97;;;23.62;27.81
69223;BME280;56514;51.816;-0.026;2023-04-24T13:02:35;100452.06;;;24.18;27.19
69223;BME280;56514;51.816;-0.026;2023-04-24T13:05:21;100459.53;;;24.97;27.02
69223;BME280;56514;51.816;-0.026;2023-04-24T13:08:25;100466.31;;;25.73;25.43
69223;BME280;56514;51.816;-0.026;2023-04-24T13:11:30;100454.53;;;26.64;23.59
69223;BME280;56514;51.816;-0.026;2023-04-24T13:14:35;100457.16;;;27.27;24.31
69223;BME280;56514;51.816;-0.026;2023-04-24T13:17:40;100463.75;;;26.37;23.46
69223;BME280;56514;51.816;-0.026;2023-04-24T13:20:50;100461.53;;;24.76;24.08
69223;BME280;56514;51.816;-0.026;2023-04-24T13:23:59;100465.00;;;23.32;26.36
69223;BME280;56514;51.816;-0.026;2023-04-24T13:27:09;100464.56;;;22.49;27.65
69223;BME280;56514;51.816;-0.026;2023-04-24T13:30:18;100463.25;;;21.87;28.70
69223;BME280;56514;51.816;-0.026;2023-04-24T13:33:03;100470.06;;;21.38;29.25
69223;BME280;56514;51.816;-0.026;2023-04-24T13:35:48;100457.13;;;20.80;29.54
69223;BME280;56514;51.816;-0.026;2023-04-24T13:38:34;100462.41;;;20.11;30.69
69223;BME280;56514;51.816;-0.026;2023-04-24T13:41:19;100463.16;;;19.33;32.04
69223;BME280;56514;51.816;-0.026;2023-04-24T13:44:05;100469.72;;;18.39;33.59
69223;BME280;56514;51.816;-0.026;2023-04-24T13:46:53;100456.53;;;17.86;34.47
69223;BME280;56514;51.816;-0.026;2023-04-24T13:49:41;100453.94;;;17.51;35.05
69223;BME280;56514;51.816;-0.026;2023-04-24T13:52:26;100467.50;;;17.22;35.71
69223;BME280;56514;51.816;-0.026;2023-04-24T13:55:11;100469.47;;;17.20;36.12
69223;BME280;56514;51.816;-0.026;2023-04-24T13:57:56;100465.38;;;17.26;35.96
69223;BME280;56514;51.816;-0.026;2023-04-24T14:00:42;100452.78;;;17.36;35.62
69223;BME280;56514;51.816;-0.026;2023-04-24T14:03:27;100451.97;;;17.53;35.60
69223;BME280;56514;51.816;-0.026;2023-04-24T14:06:12;100444.88;;;17.87;35.01
69223;BME280;56514;51.816;-0.026;2023-04-24T14:08:57;100443.56;;;17.91;34.20
69223;BME280;56514;51.816;-0.026;2023-04-24T14:11:41;100447.25;;;17.98;34.50
69223;BME280;56514;51.816;-0.026;2023-04-24T14:14:27;100446.09;;;18.26;34.13
69223;BME280;56514;51.816;-0.026;2023-04-24T14:17:14;100435.78;;;18.31;33.82
69223;BME280;56514;51.816;-0.026;2023-04-24T14:19:59;100435.22;;;18.53;33.67
69223;BME280;56514;51.816;-0.026;2023-04-24T14:22:47;100443.03;;;18.39;32.93
69223;BME280;56514;51.816;-0.026;2023-04-24T14:25:32;100431.03;;;18.17;33.54
69223;BME280;56514;51.816;-0.026;2023-04-24T14:28:21;100435.78;;;18.31;34.00
69223;BME280;56514;51.816;-0.026;2023-04-24T14:31:06;100432.38;;;18.55;33.72
69223;BME280;56514;51.816;-0.026;2023-04-24T14:34:11;100433.97;;;18.81;33.56
69223;BME280;56514;51.816;-0.026;2023-04-24T14:37:16;100430.81;;;19.02;32.92
69223;BME280;56514;51.816;-0.026;2023-04-24T14:40:23;100426.16;;;19.20;32.94
69223;BME280;56514;51.816;-0.026;2023-04-24T14:43:35;100422.03;;;19.42;31.59
69223;BME280;56514;51.816;-0.026;2023-04-24T14:46:44;100414.84;;;19.42;31.94
69223;BME280;56514;51.816;-0.026;2023-04-24T14:49:54;100422.50;;;19.61;31.86
69223;BME280;56514;51.816;-0.026;2023-04-24T14:53:03;100418.47;;;19.73;31.70
69223;BME280;56514;51.816;-0.026;2023-04-24T14:56:13;100409.16;;;19.53;31.50
69223;BME280;56514;51.816;-0.026;2023-04-24T14:59:23;100417.16;;;19.29;31.72
69223;BME280;56514;51.816;-0.026;2023-04-24T15:02:33;100415.88;;;18.59;31.74
69223;BME280;56514;51.816;-0.026;2023-04-24T15:05:18;100415.72;;;17.94;32.94